Latest Weather Observations for Douglas River

IDD60801

Issued at 2:01 pm CST Saturday 10 December 2016 (issued every 30 minutes, with the page automatically refreshed every 10 minutes)

About weather observations | Map of weather stations | Latest weather observations for NT | Other Formats
Station Details ID: 014901 Name: DOUGLAS RIVER Lat: -13.83 Lon: 131.19 Height: 42.8 m
Data from the previous 72 hours. | See also: Recent months at Douglas River
Date/Time
CST
Temp
°C
App
Temp
°C
Dew
Point
°C
Rel
Hum
%
Delta-T
°C
Wind Press
QNH
hPa
Press
MSL
hPa
Rain since
9am
mm
Dir  Spd
km/h
Gust
km/h
Spd
kts
Gust
kts
10/01:30pm 34.1 36.4 22.1 49 8.2 SE 13 17 7 9 1008.1 1007.8 0.0
10/01:00pm 34.2 37.4 23.1 52 7.7 SSW 11 17 6 9 1008.8 1008.5 0.0
10/12:30pm 33.7 36.9 23.7 56 7.0 SSW 13 17 7 9 1009.4 1009.1 0.0
10/12:00pm 33.6 38.1 24.0 57 6.7 SW 7 13 4 7 1009.7 1009.4 0.0
10/11:30am 33.3 37.1 23.5 56 6.8 SW 9 13 5 7 1010.2 1009.9 0.0
10/11:00am 32.8 36.8 23.1 56 6.7 SW 7 15 4 8 1010.6 1010.3 0.0
10/10:30am 32.4 36.6 24.1 61 5.8 WSW 9 13 5 7 1010.9 1010.6 0.0
10/10:00am 31.7 36.3 24.1 64 5.3 W 7 11 4 6 1010.8 1010.5 0.0
10/09:30am 31.3 37.1 25.1 69 4.4 WNW 4 9 2 5 1010.8 1010.5 0.0
10/09:00am 30.7 36.0 25.0 71 4.0 ENE 6 7 3 4 1011.3 1011.0 0.0
10/08:30am 29.9 36.2 24.8 74 3.6 CALM 0 0 0 0 1011.3 1011.0 0.0
10/08:00am 28.7 33.9 24.2 76 3.1 E 4 7 2 4 1011.0 1010.7 0.0
10/07:30am 27.3 32.3 23.8 81 2.4 E 4 6 2 3 1010.8 1010.5 0.0
10/07:00am 26.2 31.1 24.3 89 1.3 E 6 7 3 4 1010.4 1010.1 0.0
10/06:30am 25.3 30.0 24.0 92 0.9 E 6 7 3 4 1009.9 1009.6 0.0
10/06:00am 25.2 31.2 24.3 95 0.6 CALM 0 0 0 0 1009.2 1008.9 0.0
10/05:30am 25.4 30.3 24.4 94 0.7 E 6 7 3 4 1008.6 1008.3 0.0
10/05:00am 25.4 31.5 24.4 94 0.7 CALM 0 0 0 0 1008.1 1007.8 0.0
10/04:30am 25.4 31.5 24.5 95 0.6 CALM 0 0 0 0 1007.9 1007.6 0.0
10/04:00am 25.6 31.4 24.6 94 0.7 NE 2 6 1 3 1007.7 1007.4 0.0
10/03:30am 25.9 32.1 24.6 92 0.9 CALM 0 0 0 0 1007.7 1007.4 0.0
10/03:00am 26.0 31.9 24.7 92 0.9 N 2 6 1 3 1007.8 1007.5 0.0
10/02:30am 26.5 32.8 24.8 90 1.2 CALM 0 0 0 0 1007.7 1007.4 0.0
10/02:00am 26.6 33.0 24.9 90 1.2 CALM 0 6 0 3 1008.0 1007.7 0.0
10/01:30am 26.7 33.0 24.8 89 1.3 CALM 0 0 0 0 1008.3 1008.0 0.0
10/01:00am 27.1 33.4 24.8 87 1.6 CALM 0 0 0 0 1008.6 1008.3 0.0
10/12:30am 27.4 33.3 24.7 85 1.9 WNW 2 7 1 4 1008.6 1008.3 0.0
10/12:00am 27.7 33.8 24.5 83 2.2 CALM 0 4 0 2 1008.7 1008.4 0.0
 
Date/Time
CST
Temp
°C
App
Temp
°C
Dew
Point
°C
Rel
Hum
%
Delta-T
°C
Wind Press
QNH
hPa
Press
MSL
hPa
Rain since
9am
mm
Dir  Spd
km/h
Gust
km/h
Spd
kts
Gust
kts
09/11:30pm 28.0 33.8 24.6 82 2.4 NW 2 7 1 4 1008.8 1008.5 0.0
09/11:00pm 28.5 33.3 24.2 77 3.0 NW 6 9 3 5 1008.6 1008.3 0.0
09/10:30pm 29.0 33.3 23.6 72 3.7 WNW 7 11 4 6 1008.4 1008.1 0.0
09/10:00pm 29.3 33.3 23.7 72 3.9 WNW 9 13 5 7 1007.8 1007.5 0.0
09/09:30pm 29.9 33.6 23.9 70 4.2 NW 11 22 6 12 1007.8 1007.5 0.0
09/09:00pm 30.2 33.3 22.9 65 5.0 WNW 11 17 6 9 1007.5 1007.2 0.0
09/08:30pm 29.5 32.4 19.8 56 6.4 NNW 4 6 2 3 1006.9 1006.6 0.0
09/08:00pm 30.0 33.3 19.1 52 7.1 CALM 0 6 0 3 1006.4 1006.1 0.0
09/07:30pm 30.3 32.9 20.0 54 6.8 N 6 7 3 4 1005.8 1005.4 0.0
09/07:00pm 31.5 34.3 20.4 51 7.4 N 6 7 3 4 1005.3 1004.9 0.0
09/06:30pm 33.2 36.3 21.1 49 8.2 N 6 7 3 4 1005.0 1004.6 0.0
09/06:00pm 35.0 38.8 21.0 44 9.5 N 2 7 1 4 1004.5 1004.1 0.0
09/05:30pm 36.1 39.2 20.2 39 10.7 E 4 11 2 6 1004.2 1003.8 0.0
09/05:00pm 37.7 40.7 20.1 36 11.8 NW 4 7 2 4 1004.0 1003.6 0.0
09/04:30pm 37.1 38.9 19.6 36 11.7 S 9 13 5 7 1004.1 1003.7 0.0
09/04:00pm 36.8 39.6 20.9 39 10.8 SE 7 11 4 6 1004.3 1003.9 0.0
09/03:30pm 36.3 39.6 20.8 40 10.5 ENE 4 9 2 5 1004.9 1004.5 0.0
09/03:00pm 36.5 40.2 22.3 44 9.8 N 6 7 3 4 1005.2 1004.8 0.0
09/02:30pm 36.0 39.4 21.7 43 9.8 SSE 6 13 3 7 1005.6 1005.2 0.0
09/02:00pm 35.6 39.3 22.6 47 9.0 NW 7 13 4 7 1006.0 1005.6 0.0
09/01:30pm 35.4 39.6 21.7 45 9.4 SW 2 7 1 4 1006.5 1006.2 0.0
09/01:00pm 34.6 37.1 21.7 47 8.8 SW 11 17 6 9 1007.1 1006.8 0.0
09/12:30pm 34.6 38.3 22.2 48 8.5 WNW 6 11 3 6 1007.5 1007.2 0.0
09/12:00pm 34.3 38.4 22.9 51 7.9 WSW 6 9 3 5 1007.9 1007.6 0.0
09/11:30am 33.6 37.6 23.7 56 6.9 WNW 9 15 5 8 1008.1 1007.8 0.0
09/11:00am 33.2 38.3 24.1 59 6.4 SSE 4 7 2 4 1008.5 1008.2 0.0
09/10:30am 32.5 37.8 24.9 64 5.4 NNW 6 7 3 4 1008.9 1008.6 0.0
09/10:00am 32.1 37.4 24.9 65 5.1 SE 6 9 3 5 1009.3 1009.0 0.0
09/09:30am 31.5 37.3 26.0 72 3.9 E 7 11 4 6 1009.6 1009.3 0.0
09/09:00am 30.7 37.0 25.9 75 3.4 ESE 4 9 2 5 1009.5 1009.2 0.0
09/08:30am 29.9 36.0 25.7 78 3.0 N 4 7 2 4 1009.4 1009.1 0.0
09/08:00am 28.7 34.8 25.7 84 2.1 N 4 7 2 4 1009.2 1008.9 0.0
09/07:30am 27.5 34.4 25.7 90 1.3 CALM 0 0 0 0 1009.0 1008.7 0.0
09/07:00am 26.2 32.7 25.1 94 0.8 CALM 0 0 0 0 1008.5 1008.2 0.0
09/06:30am 25.7 32.2 25.0 96 0.5 CALM 0 0 0 0 1008.0 1007.7 0.0
09/06:00am 25.4 31.7 24.8 96 0.4 CALM 0 0 0 0 1007.6 1007.3 0.0
09/05:30am 25.7 32.2 25.0 96 0.5 CALM 0 0 0 0 1006.9 1006.6 0.0
09/05:00am 25.6 31.9 24.7 95 0.6 CALM 0 0 0 0 1006.7 1006.4 0.0
09/04:30am 25.8 32.2 24.9 95 0.6 CALM 0 0 0 0 1006.5 1006.2 0.0
09/04:00am 26.1 32.6 25.1 94 0.7 CALM 0 2 0 1 1006.3 1005.9 0.0
09/03:30am 26.2 32.8 25.2 94 0.7 CALM 0 0 0 0 1006.2 1005.8 0.0
09/03:00am 26.6 33.2 25.3 93 0.9 CALM 0 0 0 0 1006.0 1005.6 0.0
09/02:30am 27.0 33.6 25.3 90 1.2 CALM 0 0 0 0 1006.3 1005.9 0.0
09/02:00am 26.9 33.3 25.5 92 1.0 N 2 6 1 3 1006.4 1006.1 0.0
09/01:30am 27.2 32.8 25.5 90 1.2 NNE 6 7 3 4 1006.3 1005.9 0.0
09/01:00am 27.3 33.3 25.5 90 1.3 N 4 7 2 4 1006.3 1005.9 0.0
09/12:30am 27.4 34.2 25.6 90 1.3 CALM 0 4 0 2 1006.3 1005.9 0.0
09/12:00am 27.9 34.7 25.6 87 1.6 CALM 0 6 0 3 1006.4 1006.1 0.0
 
Date/Time
CST
Temp
°C
App
Temp
°C
Dew
Point
°C
Rel
Hum
%
Delta-T
°C
Wind Press
QNH
hPa
Press
MSL
hPa
Rain since
9am
mm
Dir  Spd
km/h
Gust
km/h
Spd
kts
Gust
kts
08/11:30pm 28.2 34.7 25.7 86 1.8 NNW 2 6 1 3 1006.6 1006.3 0.0
08/11:00pm 28.5 34.5 25.5 84 2.1 NNW 4 9 2 5 1006.7 1006.4 0.0
08/10:30pm 28.8 34.7 25.3 81 2.5 NNW 4 7 2 4 1006.5 1006.2 0.0
08/10:00pm 29.3 34.4 24.9 77 3.1 NW 7 13 4 7 1006.1 1005.7 0.0
08/09:30pm 29.8 34.2 24.5 73 3.7 WNW 9 17 5 9 1005.7 1005.3 0.0
08/09:00pm 30.1 34.4 24.2 70 4.1 WNW 9 15 5 8 1005.4 1005.0 0.0
08/08:30pm 30.6 34.6 23.8 67 4.7 WNW 9 13 5 7 1005.1 1004.7 0.0
08/08:00pm 31.4 34.6 23.0 61 5.8 NW 11 17 6 9 1004.5 1004.1 0.0
08/07:30pm 31.9 36.0 23.2 60 6.0 NW 7 17 4 9 1003.9 1003.5 0.0
08/07:00pm 32.9 38.5 23.6 58 6.5 CALM 0 2 0 1 1003.6 1003.2 0.0
08/06:30pm 35.7 41.8 26.2 58 6.9 SW 6 7 3 4 1003.3 1002.9 0.0
08/06:00pm 35.7 40.3 21.7 44 9.6 CALM 0 6 0 3 1003.4 1003.0 0.0
08/05:30pm 36.8 39.6 20.9 39 10.8 SE 7 11 4 6 1003.2 1002.8 0.0
08/05:00pm 37.3 39.5 20.5 37 11.4 SSW 9 11 5 6 1003.2 1002.8 0.0
08/04:30pm 37.2 39.4 20.5 37 11.3 SW 9 13 5 7 1003.3 1002.9 0.0
08/04:00pm 37.2 39.3 20.2 37 11.4 SW 9 13 5 7 1003.3 1002.9 0.0
08/03:30pm 36.9 40.2 21.8 41 10.4 WSW 7 13 4 7 1003.6 1003.2 0.0
08/03:00pm 36.9 39.9 21.2 40 10.7 WSW 7 11 4 6 1003.9 1003.5 0.0
08/02:30pm 36.5 39.2 20.7 39 10.7 S 7 11 4 6 1004.3 1003.9 0.0
08/02:00pm 36.2 38.8 20.1 39 10.8 ENE 6 9 3 5 1004.6 1004.2 0.0
08/01:30pm 35.9 39.2 21.4 43 9.9 NNE 6 13 3 7 1005.0 1004.6 0.0
08/01:00pm 35.3 37.6 20.6 42 9.9 ESE 9 13 5 7 1005.6 1005.2 0.0
08/12:30pm 35.5 38.8 21.4 44 9.6 NNE 6 11 3 6 1006.1 1005.7 0.0
08/12:00pm 34.9 38.5 21.2 45 9.3 NW 4 9 2 5 1006.6 1006.3 0.0
08/11:30am 34.1 37.9 22.8 51 7.8 NW 7 11 4 6 1007.1 1006.8 0.0
08/11:00am 33.4 39.2 24.6 60 6.2 W 2 7 1 4 1007.6 1007.3 0.0
08/10:30am 32.6 36.9 24.2 61 5.9 W 9 17 5 9 1008.0 1007.7 0.0
08/10:00am 31.8 37.2 25.2 68 4.7 NW 6 11 3 6 1008.3 1008.0 0.0
08/09:30am 31.1 36.0 25.3 71 4.1 NW 9 15 5 8 1008.5 1008.2 0.0
08/09:00am 30.5 36.1 25.7 75 3.4 NW 7 13 4 7 1008.1 1007.8 0.0
08/08:30am 30.3 37.0 26.0 78 3.1 N 2 7 1 4 1008.0 1007.7 0.0
08/08:00am 28.7 35.2 25.6 83 2.2 N 2 6 1 3 1008.0 1007.7 0.0
08/07:30am 27.2 33.8 25.2 89 1.4 CALM 0 0 0 0 1008.0 1007.7 0.0
08/07:00am 26.2 32.7 25.1 94 0.8 CALM 0 0 0 0 1007.7 1007.4 0.0
08/06:30am 25.5 31.6 24.5 94 0.7 CALM 0 0 0 0 1007.2 1006.9 0.0
08/06:00am 25.5 31.6 24.5 94 0.7 CALM 0 0 0 0 1006.9 1006.6 0.0
08/05:30am 25.7 31.8 24.4 92 0.9 CALM 0 0 0 0 1006.5 1006.2 0.0
08/05:00am 25.8 31.9 24.5 92 0.9 CALM 0 0 0 0 1006.4 1006.1 0.0
08/04:30am 25.9 31.9 24.3 91 1.1 CALM 0 0 0 0 1006.5 1006.2 0.0
08/04:00am 25.5 31.1 24.3 93 0.8 N 2 7 1 4 1006.6 1006.3 0.0
08/03:30am 25.4 30.3 24.4 94 0.7 NNE 6 7 3 4 1006.5 1006.2 0.0
08/03:00am 25.4 30.4 24.5 95 0.6 ENE 6 9 3 5 1006.4 1006.1 0.0
08/02:30am 25.5 31.7 24.6 95 0.6 CALM 0 0 0 0 1006.1 1005.7 0.0
08/02:00am 25.5 31.7 24.6 95 0.6 CALM 0 0 0 0 1006.1 1005.7 0.0
08/01:30am 25.8 32.1 24.8 94 0.7 CALM 0 0 0 0 1006.4 1006.1 0.0
08/01:00am 26.2 32.6 24.9 92 0.9 CALM 0 0 0 0 1006.6 1006.3 0.0
08/12:30am 26.2 31.8 24.9 92 0.9 WSW 4 7 2 4 1006.9 1006.6 0.0
08/12:00am 26.9 32.9 24.8 88 1.5 NNW 2 7 1 4 1007.0 1006.7 0.0
 
Date/Time
CST
Temp
°C
App
Temp
°C
Dew
Point
°C
Rel
Hum
%
Delta-T
°C
Wind Press
QNH
hPa
Press
MSL
hPa
Rain since
9am
mm
Dir  Spd
km/h
Gust
km/h
Spd
kts
Gust
kts
07/11:30pm 27.4 33.2 25.1 87 1.6 NW 4 7 2 4 1007.4 1007.1 0.0
07/11:00pm 27.9 33.1 24.8 83 2.2 WNW 6 9 3 5 1007.4 1007.1 0.0
07/10:30pm 28.2 34.5 25.4 85 2.0 NW 2 6 1 3 1007.3 1007.0 0.0
07/10:00pm 28.8 34.2 25.1 80 2.6 NW 6 11 3 6 1007.2 1006.9 0.0
07/09:30pm 29.2 33.6 25.1 78 2.9 W 11 15 6 8 1007.1 1006.8 0.0
07/09:00pm 29.1 35.4 25.9 83 2.3 N 4 9 2 5 1006.4 1006.1 0.0
07/08:30pm 29.6 36.8 26.2 82 2.4 CALM 0 0 0 0 1006.1 1005.7 0.0
07/08:00pm 30.4 36.0 25.5 75 3.5 WNW 6 6 3 3 1005.9 1005.5 0.0
07/07:30pm 31.0 36.4 25.1 71 4.2 WNW 6 6 3 3 1005.4 1005.0 0.0
07/07:00pm 33.0 37.2 23.2 56 6.8 WNW 6 9 3 5 1005.1 1004.7 0.0
07/06:30pm 34.7 39.9 24.8 56 7.0 W 6 7 3 4 1004.7 1004.3 0.0
07/06:00pm 35.5 40.4 24.3 52 7.9 W 6 7 3 4 1004.6 1004.2 0.0
07/05:30pm 35.7 39.4 23.2 48 8.7 WSW 9 11 5 6 1004.3 1003.9 0.0
07/05:00pm 35.7 40.3 22.4 46 9.2 ENE 2 7 1 4 1004.3 1003.9 0.0
07/04:30pm 36.0 39.4 21.7 43 9.8 ENE 6 9 3 5 1004.4 1004.0 0.0
07/04:00pm 36.2 40.8 23.2 47 9.1 NE 4 9 2 5 1004.8 1004.4 0.0
07/03:30pm 35.2 38.9 22.3 47 8.9 NNE 6 9 3 5 1005.1 1004.7 0.0
07/03:00pm 35.0 39.0 22.0 46 8.9 NNE 4 9 2 5 1005.6 1005.2 0.0
07/02:30pm 34.8 39.5 24.0 53 7.6 NW 6 9 3 5 1005.9 1005.5 0.0

Other Formats:

Comma delimited format used in spreadsheet applications
http://www.bom.gov.au/fwo/IDD60801/IDD60801.94128.axf

JavaScript Object Notation format (JSON) in row-major order
http://www.bom.gov.au/fwo/IDD60801/IDD60801.94128.json